createdAt,value
2022-10-13T00:03:25.130Z,11.20
2022-10-13T00:10:07.751Z,11.30
2022-10-13T00:16:50.082Z,11.30
2022-10-13T00:23:34.178Z,11.30
2022-10-13T00:30:16.692Z,11.30
2022-10-13T00:36:59.894Z,11.20
2022-10-13T00:44:01.046Z,11.30
2022-10-13T00:50:43.734Z,11.30
2022-10-13T00:57:26.512Z,11.30
2022-10-13T01:04:09.172Z,11.40
2022-10-13T01:11:12.668Z,11.50
2022-10-13T01:18:17.253Z,11.50
2022-10-13T01:25:15.303Z,11.50
2022-10-13T01:32:22.020Z,11.60
2022-10-13T01:39:25.065Z,11.60
2022-10-13T01:46:23.048Z,11.70
2022-10-13T01:53:05.982Z,11.70
2022-10-13T01:59:48.460Z,11.80
2022-10-13T02:06:32.588Z,12.00
2022-10-13T02:13:17.652Z,12.10
2022-10-13T02:20:00.184Z,12.20
2022-10-13T02:26:42.902Z,12.00
2022-10-13T02:33:26.674Z,11.90
2022-10-13T02:40:09.986Z,11.80
2022-10-13T02:46:52.549Z,11.80
2022-10-13T02:53:35.163Z,12.00
2022-10-13T03:00:17.800Z,12.10
2022-10-13T03:07:00.095Z,12.20
2022-10-13T03:13:42.443Z,12.20
2022-10-13T03:20:24.799Z,12.10
2022-10-13T03:27:10.911Z,12.10
2022-10-13T03:33:53.223Z,12.10
2022-10-13T03:40:36.663Z,12.10
2022-10-13T03:47:19.047Z,12.00
2022-10-13T03:54:01.365Z,11.80
2022-10-13T04:00:43.893Z,11.90
2022-10-13T04:07:26.554Z,11.90
2022-10-13T04:14:09.080Z,12.00
2022-10-13T04:20:51.408Z,12.20
2022-10-13T04:27:34.084Z,12.30
2022-10-13T04:34:16.606Z,12.50
2022-10-13T04:40:59.456Z,12.50
2022-10-13T04:47:43.992Z,12.50
2022-10-13T04:54:26.324Z,12.40
2022-10-13T05:01:15.389Z,12.30
2022-10-13T05:07:59.949Z,12.10
2022-10-13T05:14:42.282Z,12.10
2022-10-13T05:21:27.583Z,12.10
2022-10-13T05:28:09.986Z,12.10
2022-10-13T05:34:52.352Z,12.10
2022-10-13T05:41:34.963Z,12.20
2022-10-13T05:48:20.656Z,12.40
2022-10-13T05:55:06.023Z,12.50
2022-10-13T06:01:49.139Z,12.70
2022-10-13T06:08:31.947Z,12.80
2022-10-13T06:15:27.786Z,12.90
2022-10-13T06:22:12.125Z,12.90
2022-10-13T06:28:59.144Z,13.20
2022-10-13T06:35:42.766Z,13.30
2022-10-13T06:42:30.826Z,13.50
2022-10-13T06:49:25.271Z,13.40
2022-10-13T06:56:08.460Z,13.50
2022-10-13T07:02:52.390Z,13.50
2022-10-13T07:09:39.589Z,13.70
2022-10-13T07:16:23.784Z,13.90
2022-10-13T07:23:06.225Z,13.90
2022-10-13T07:29:48.709Z,14.00
2022-10-13T07:36:32.863Z,14.10
2022-10-13T07:43:15.198Z,14.30
2022-10-13T07:49:57.597Z,14.60
2022-10-13T07:56:40.140Z,15.50
2022-10-13T08:03:29.022Z,16.00
2022-10-13T08:10:14.257Z,16.10
2022-10-13T08:16:57.800Z,17.00
2022-10-13T08:23:40.151Z,17.20
2022-10-13T08:30:22.690Z,17.40
2022-10-13T08:37:05.440Z,17.40
2022-10-13T08:44:33.041Z,18.30
2022-10-13T08:51:00.760Z,19.10
2022-10-13T08:57:44.540Z,20.40
2022-10-13T09:04:36.175Z,19.60
2022-10-13T09:11:18.643Z,19.80
2022-10-13T09:18:12.964Z,20.00
2022-10-13T09:25:07.585Z,19.90
2022-10-13T09:31:50.021Z,18.90
2022-10-13T09:38:33.639Z,18.60
2022-10-13T09:45:18.681Z,18.80
2022-10-13T09:52:16.074Z,18.80
2022-10-13T09:59:14.957Z,18.70
2022-10-13T10:06:03.017Z,18.30
2022-10-13T10:12:45.679Z,18.40
2022-10-13T10:19:47.492Z,18.70
2022-10-13T10:26:39.023Z,18.90
2022-10-13T10:33:29.961Z,18.50
2022-10-13T10:40:16.670Z,18.60
2022-10-13T10:47:06.856Z,18.30
2022-10-13T10:53:52.174Z,18.50
2022-10-13T11:00:41.508Z,18.60
2022-10-13T11:07:23.745Z,18.50
2022-10-13T11:14:06.053Z,18.60
2022-10-13T11:20:56.658Z,18.90
2022-10-13T11:27:41.611Z,18.50
2022-10-13T11:34:30.647Z,19.00
2022-10-13T11:41:22.896Z,19.10
2022-10-13T11:48:16.106Z,18.50
2022-10-13T11:55:09.451Z,18.50
2022-10-13T12:02:00.234Z,18.60
2022-10-13T12:08:47.520Z,18.90
2022-10-13T12:15:31.433Z,19.30
2022-10-13T12:22:15.303Z,19.40
2022-10-13T12:29:01.978Z,19.90
2022-10-13T12:35:44.410Z,20.00
2022-10-13T12:42:32.312Z,20.20
2022-10-13T12:49:16.430Z,20.50
2022-10-13T12:56:00.860Z,20.00
2022-10-13T13:02:51.962Z,20.20
2022-10-13T13:09:38.691Z,20.30
2022-10-13T13:16:24.179Z,19.90
2022-10-13T13:23:06.507Z,20.20
2022-10-13T13:29:49.218Z,19.60
2022-10-13T13:36:31.802Z,19.30
2022-10-13T13:43:14.159Z,19.10
2022-10-13T13:49:57.475Z,19.40
2022-10-13T13:56:39.931Z,19.50
2022-10-13T14:03:22.305Z,19.60
2022-10-13T14:10:05.818Z,19.70
2022-10-13T14:16:48.198Z,19.60
2022-10-13T14:23:30.616Z,19.40
2022-10-13T14:30:13.770Z,19.40
2022-10-13T14:36:56.174Z,19.30
2022-10-13T14:43:38.536Z,19.40
2022-10-13T14:50:21.055Z,19.40
2022-10-13T14:57:08.772Z,19.30
2022-10-13T15:03:51.263Z,18.60
2022-10-13T15:10:33.793Z,18.10
2022-10-13T15:17:16.898Z,17.80
2022-10-13T15:23:59.219Z,17.70
2022-10-13T15:30:41.539Z,17.60
2022-10-13T15:37:24.358Z,17.80
2022-10-13T15:44:06.864Z,17.50
2022-10-13T15:50:49.227Z,17.50
2022-10-13T15:57:31.834Z,17.30
2022-10-13T16:04:14.172Z,17.20
2022-10-13T16:10:56.542Z,17.10
2022-10-13T16:17:39.310Z,17.00
2022-10-13T16:24:21.634Z,16.90
2022-10-13T16:31:05.567Z,16.70
2022-10-13T16:37:48.381Z,16.60
2022-10-13T16:44:30.728Z,16.50
2022-10-13T16:51:16.271Z,16.40
2022-10-13T16:57:58.782Z,16.40
2022-10-13T17:04:41.622Z,16.20
2022-10-13T17:11:30.351Z,16.00
2022-10-13T17:18:12.707Z,15.90
2022-10-13T17:24:55.218Z,16.00
2022-10-13T17:31:37.544Z,16.00
2022-10-13T17:38:19.873Z,15.90
2022-10-13T17:45:11.498Z,15.90
2022-10-13T17:51:55.603Z,15.90
2022-10-13T17:58:42.210Z,15.80
2022-10-13T18:05:55.701Z,15.50
2022-10-13T18:12:38.049Z,15.70
2022-10-13T18:19:21.366Z,15.70
2022-10-13T18:26:11.876Z,15.60
2022-10-13T18:32:54.226Z,15.40
2022-10-13T18:39:36.562Z,15.60
2022-10-13T18:46:19.208Z,15.60
2022-10-13T18:53:03.066Z,15.60
2022-10-13T18:59:46.018Z,15.50
2022-10-13T19:06:31.992Z,15.50
2022-10-13T19:13:14.337Z,15.50
2022-10-13T19:19:56.971Z,15.40
2022-10-13T19:26:39.518Z,15.40
2022-10-13T19:33:21.822Z,15.50
2022-10-13T19:40:06.730Z,15.50
2022-10-13T19:46:50.122Z,15.50
2022-10-13T19:53:33.521Z,15.50
2022-10-13T20:00:16.288Z,15.50
2022-10-13T20:06:58.664Z,15.40
2022-10-13T20:13:44.661Z,15.40
2022-10-13T20:20:27.450Z,15.40
2022-10-13T20:27:10.674Z,15.30
2022-10-13T20:33:55.800Z,15.20
2022-10-13T20:40:38.225Z,14.90
2022-10-13T20:47:20.688Z,14.80
2022-10-13T20:54:03.145Z,14.90
2022-10-13T21:00:45.520Z,14.80
2022-10-13T21:07:28.423Z,14.70
2022-10-13T21:14:10.795Z,14.70
2022-10-13T21:20:53.209Z,14.50
2022-10-13T21:27:35.524Z,14.50
2022-10-13T21:34:17.870Z,14.40
2022-10-13T21:41:10.957Z,14.40
2022-10-13T21:47:53.257Z,14.50
2022-10-13T21:54:35.570Z,14.50
2022-10-13T22:01:19.745Z,14.50
2022-10-13T22:08:02.061Z,14.50
2022-10-13T22:14:44.373Z,14.50
2022-10-13T22:21:32.715Z,14.40
2022-10-13T22:28:17.349Z,14.40
2022-10-13T22:34:59.747Z,14.40
2022-10-13T22:41:47.985Z,14.50
2022-10-13T22:48:30.607Z,14.60
2022-10-13T22:55:14.368Z,14.60
2022-10-13T23:01:56.707Z,14.70
2022-10-13T23:08:39.469Z,14.70
2022-10-13T23:15:21.779Z,14.60
2022-10-13T23:22:04.112Z,14.30
2022-10-13T23:28:46.513Z,14.30
2022-10-13T23:35:28.940Z,14.40
2022-10-13T23:42:11.537Z,14.50
2022-10-13T23:48:53.922Z,14.50
2022-10-13T23:55:39.875Z,14.60
